Time;durP1;ratioP1;P1;durP2;ratioP2;P2;SDS_P1;SDS_P2;PMS_P1;PMS_P2;Temp;Humidity;BMP_temperature;BMP_pressure;BME280_temperature;BME280_humidity;BME280_pressure;Samples;Min_cycle;Max_cycle;Signal;HPM_P1;HPM_P2
2023/07/01 00:00:45;;;;;;;7.00;5.07;;;;;;;;;;5135268;27;20224;-77
2023/07/01 00:03:13;;;;;;;7.18;5.18;;;;;;;;;;5135767;27;20291;-77
2023/07/01 00:05:41;;;;;;;8.38;5.32;;;;;;;;;;5134994;27;20201;-77
2023/07/01 00:08:08;;;;;;;8.00;5.13;;;;;;;;;;5134925;27;20761;-79
2023/07/01 00:10:35;;;;;;;9.02;5.78;;;;;;;;;;5135376;27;20193;-76
2023/07/01 00:13:02;;;;;;;7.57;5.25;;;;;;;;;;5134624;27;20196;-77
2023/07/01 00:15:29;;;;;;;9.90;5.22;;;;;;;;;;5135131;27;20256;-77
2023/07/01 00:17:58;;;;;;;10.82;5.13;;;;;;;;;;5134895;27;20284;-76
2023/07/01 00:20:26;;;;;;;7.30;5.13;;;;;;;;;;5135250;27;20276;-76
2023/07/01 00:22:54;;;;;;;7.90;4.70;;;;;;;;;;5134360;27;20371;-78
2023/07/01 00:25:22;;;;;;;8.77;5.00;;;;;;;;;;5135121;27;20197;-77
2023/07/01 00:27:50;;;;;;;7.65;5.05;;;;;;;;;;5134681;27;20205;-76
2023/07/01 00:30:17;;;;;;;9.52;5.57;;;;;;;;;;5134965;27;20284;-78
2023/07/01 00:32:44;;;;;;;7.40;5.43;;;;;;;;;;5134862;27;20217;-77
2023/07/01 00:35:13;;;;;;;8.30;5.38;;;;;;;;;;5134697;27;20324;-78
2023/07/01 00:37:40;;;;;;;7.57;4.93;;;;;;;;;;5134793;27;20650;-76
2023/07/01 00:40:07;;;;;;;11.07;5.90;;;;;;;;;;5134518;27;20659;-77
2023/07/01 00:42:35;;;;;;;9.35;5.50;;;;;;;;;;5134446;27;20683;-77
2023/07/01 00:45:02;;;;;;;10.38;5.82;;;;;;;;;;5134694;27;20660;-77
2023/07/01 00:47:29;;;;;;;10.00;5.45;;;;;;;;;;5134285;27;20236;-77
2023/07/01 00:49:56;;;;;;;11.73;6.05;;;;;;;;;;5134110;27;20257;-77
2023/07/01 00:52:25;;;;;;;7.93;5.43;;;;;;;;;;5134288;27;20207;-77
2023/07/01 00:54:52;;;;;;;11.32;5.78;;;;;;;;;;5134014;27;20228;-77
2023/07/01 00:57:19;;;;;;;11.32;5.53;;;;;;;;;;5134228;27;20284;-77
2023/07/01 00:59:46;;;;;;;9.55;5.65;;;;;;;;;;5133912;27;20292;-78
2023/07/01 01:02:18;;;;;;;10.80;5.47;;;;;;;;;;5133986;27;20203;-77
2023/07/01 01:05:01;;;;;;;12.23;6.40;;;;;;;;;;5133082;27;20679;-78
2023/07/01 01:07:31;;;;;;;11.05;5.40;;;;;;;;;;5122441;27;20204;-77
2023/07/01 01:10:01;;;;;;;12.55;5.53;;;;;;;;;;5133760;27;20224;-76
2023/07/01 01:12:29;;;;;;;12.85;5.93;;;;;;;;;;5134207;27;20284;-77
2023/07/01 01:14:57;;;;;;;8.95;5.30;;;;;;;;;;5133691;27;20221;-78
2023/07/01 01:17:26;;;;;;;12.70;6.05;;;;;;;;;;5134058;27;20642;-77
2023/07/01 01:19:55;;;;;;;10.40;5.70;;;;;;;;;;5133810;27;20288;-77
2023/07/01 01:22:24;;;;;;;10.07;5.85;;;;;;;;;;5134021;27;20284;-78
2023/07/01 01:24:53;;;;;;;11.32;5.47;;;;;;;;;;5133407;27;20246;-77
2023/07/01 01:27:23;;;;;;;11.50;6.32;;;;;;;;;;5133775;27;20283;-77
2023/07/01 01:29:52;;;;;;;13.30;6.50;;;;;;;;;;5133431;27;20239;-77
2023/07/01 01:32:19;;;;;;;10.32;5.82;;;;;;;;;;5133984;27;20197;-77
2023/07/01 01:34:47;;;;;;;11.52;5.80;;;;;;;;;;5133566;27;20315;-77
2023/07/01 01:37:15;;;;;;;12.93;5.78;;;;;;;;;;5133564;27;20292;-78
2023/07/01 01:39:45;;;;;;;14.55;6.50;;;;;;;;;;5133441;27;20197;-79
2023/07/01 01:42:14;;;;;;;11.98;6.47;;;;;;;;;;5133053;27;20734;-77
2023/07/01 01:44:47;;;;;;;13.18;5.97;;;;;;;;;;5133293;27;20201;-77
2023/07/01 01:47:17;;;;;;;13.57;6.15;;;;;;;;;;5133341;27;20723;-78
2023/07/01 01:49:44;;;;;;;12.18;5.63;;;;;;;;;;5132889;27;20963;-77
2023/07/01 01:52:13;;;;;;;13.18;6.20;;;;;;;;;;5132946;27;20188;-78
2023/07/01 01:54:40;;;;;;;13.85;5.65;;;;;;;;;;5132504;27;20212;-77
2023/07/01 01:57:08;;;;;;;9.77;5.65;;;;;;;;;;5133313;27;20640;-76
2023/07/01 01:59:35;;;;;;;12.10;6.30;;;;;;;;;;5132944;27;20289;-77
2023/07/01 02:02:02;;;;;;;15.98;5.72;;;;;;;;;;5132505;27;20235;-78
2023/07/01 02:04:31;;;;;;;11.20;5.97;;;;;;;;;;5132792;27;20292;-78
2023/07/01 02:06:58;;;;;;;13.73;5.97;;;;;;;;;;5133537;27;20301;-78
2023/07/01 02:09:25;;;;;;;12.63;5.95;;;;;;;;;;5132367;27;20229;-76
2023/07/01 02:11:52;;;;;;;11.98;5.60;;;;;;;;;;5132989;27;20288;-77
2023/07/01 02:14:20;;;;;;;13.40;5.43;;;;;;;;;;5132583;27;20703;-75
2023/07/01 02:16:47;;;;;;;11.88;5.18;;;;;;;;;;5133073;27;20711;-76
2023/07/01 02:19:14;;;;;;;9.73;5.13;;;;;;;;;;5132686;27;20193;-76
2023/07/01 02:21:43;;;;;;;10.15;4.60;;;;;;;;;;5132052;27;20221;-77
2023/07/01 02:24:10;;;;;;;14.00;5.15;;;;;;;;;;5133270;27;20218;-77
2023/07/01 02:26:37;;;;;;;11.60;5.78;;;;;;;;;;5132553;27;20204;-77
2023/07/01 02:29:04;;;;;;;14.35;4.85;;;;;;;;;;5132408;27;20272;-77
2023/07/01 02:31:31;;;;;;;8.27;4.38;;;;;;;;;;5132427;27;20193;-76
2023/07/01 02:34:01;;;;;;;10.25;4.88;;;;;;;;;;5133093;27;20284;-77
2023/07/01 02:36:28;;;;;;;13.82;4.40;;;;;;;;;;5132240;27;20228;-77
2023/07/01 02:38:56;;;;;;;10.90;4.78;;;;;;;;;;5132368;27;21234;-76
2023/07/01 02:41:23;;;;;;;9.57;4.25;;;;;;;;;;5132385;27;20279;-77
2023/07/01 02:43:51;;;;;;;7.75;3.90;;;;;;;;;;5132352;27;20281;-77
2023/07/01 02:46:18;;;;;;;13.63;4.68;;;;;;;;;;5131962;27;20333;-77
2023/07/01 02:48:45;;;;;;;8.77;4.25;;;;;;;;;;5131993;27;20292;-76
2023/07/01 02:51:12;;;;;;;10.70;4.72;;;;;;;;;;5131631;27;20272;-76
2023/07/01 02:53:39;;;;;;;8.65;4.10;;;;;;;;;;5132128;28;20239;-77
2023/07/01 02:56:08;;;;;;;8.95;3.90;;;;;;;;;;5132249;27;20316;-77
2023/07/01 02:58:35;;;;;;;11.18;4.03;;;;;;;;;;5132158;27;20247;-77
2023/07/01 03:01:03;;;;;;;10.95;4.53;;;;;;;;;;5131974;27;21006;-77
2023/07/01 03:03:30;;;;;;;9.38;4.20;;;;;;;;;;5132462;27;20197;-76
2023/07/01 03:05:57;;;;;;;8.10;3.75;;;;;;;;;;5131622;27;20692;-76
2023/07/01 03:08:25;;;;;;;6.90;4.30;;;;;;;;;;5132633;27;20280;-76
2023/07/01 03:10:52;;;;;;;9.10;4.53;;;;;;;;;;5132021;27;20250;-77
2023/07/01 03:13:20;;;;;;;9.27;4.28;;;;;;;;;;5132308;27;20280;-77
2023/07/01 03:15:48;;;;;;;6.93;3.92;;;;;;;;;;5131982;27;20672;-77
2023/07/01 03:18:15;;;;;;;10.98;4.32;;;;;;;;;;5131970;27;20374;-77
2023/07/01 03:20:42;;;;;;;9.25;3.70;;;;;;;;;;5131257;27;20236;-75
2023/07/01 03:23:10;;;;;;;7.78;3.72;;;;;;;;;;5132051;27;20288;-77
2023/07/01 03:25:38;;;;;;;10.32;3.72;;;;;;;;;;5131908;27;20196;-78
2023/07/01 03:28:05;;;;;;;6.88;3.83;;;;;;;;;;5131990;28;20189;-78
2023/07/01 03:30:34;;;;;;;9.02;4.47;;;;;;;;;;5131846;28;20238;-76
2023/07/01 03:33:01;;;;;;;8.68;4.65;;;;;;;;;;5133433;27;20275;-77
2023/07/01 03:35:28;;;;;;;10.88;4.45;;;;;;;;;;5135513;27;20277;-78
2023/07/01 03:37:55;;;;;;;9.10;4.35;;;;;;;;;;5135759;27;20275;-77
2023/07/01 03:40:23;;;;;;;8.23;4.60;;;;;;;;;;5135868;27;20284;-76
2023/07/01 03:42:50;;;;;;;14.63;4.88;;;;;;;;;;5135662;27;20300;-76
2023/07/01 03:45:17;;;;;;;7.85;3.75;;;;;;;;;;5136156;27;20288;-76
2023/07/01 03:47:46;;;;;;;8.70;4.38;;;;;;;;;;5135444;27;20203;-76
2023/07/01 03:50:14;;;;;;;10.18;5.00;;;;;;;;;;5135138;27;20243;-78
2023/07/01 03:52:42;;;;;;;8.25;4.20;;;;;;;;;;5135264;27;20193;-76
2023/07/01 03:55:11;;;;;;;16.67;4.93;;;;;;;;;;5135436;27;20307;-76
2023/07/01 03:57:38;;;;;;;11.00;4.40;;;;;;;;;;5135791;27;20194;-77
2023/07/01 04:00:08;;;;;;;11.65;4.78;;;;;;;;;;5135199;27;20288;-77
2023/07/01 04:02:35;;;;;;;13.60;4.70;;;;;;;;;;5135227;27;20197;-77
2023/07/01 04:05:10;;;;;;;8.05;4.18;;;;;;;;;;5135374;27;20248;-77
2023/07/01 04:07:37;;;;;;;12.68;4.65;;;;;;;;;;5135192;27;20612;-76
2023/07/01 04:10:05;;;;;;;8.00;4.35;;;;;;;;;;5135141;27;20215;-77
2023/07/01 04:12:33;;;;;;;7.47;3.83;;;;;;;;;;5135304;27;20193;-76
2023/07/01 04:15:00;;;;;;;6.57;4.20;;;;;;;;;;5134989;27;20680;-76
2023/07/01 04:17:27;;;;;;;7.88;4.07;;;;;;;;;;5134933;27;20251;-77
2023/07/01 04:19:55;;;;;;;11.75;4.05;;;;;;;;;;5135076;27;20239;-77
2023/07/01 04:22:23;;;;;;;10.38;4.10;;;;;;;;;;5134909;27;20236;-77
2023/07/01 04:24:51;;;;;;;11.27;4.53;;;;;;;;;;5134879;27;20201;-75
2023/07/01 04:27:18;;;;;;;11.40;4.00;;;;;;;;;;5135271;27;20724;-76
2023/07/01 04:29:45;;;;;;;13.52;4.22;;;;;;;;;;5134858;27;20674;-76
2023/07/01 04:32:12;;;;;;;8.27;4.15;;;;;;;;;;5134694;27;20284;-77
2023/07/01 04:34:39;;;;;;;9.73;3.85;;;;;;;;;;5134659;27;20228;-76
2023/07/01 04:37:06;;;;;;;13.57;3.80;;;;;;;;;;5134251;27;20709;-77
2023/07/01 04:39:35;;;;;;;6.72;3.60;;;;;;;;;;5134783;27;20247;-77
2023/07/01 04:42:02;;;;;;;5.35;3.60;;;;;;;;;;5134626;27;20203;-76
2023/07/01 04:44:30;;;;;;;11.23;3.72;;;;;;;;;;5134405;27;20204;-76
2023/07/01 04:46:57;;;;;;;5.80;3.08;;;;;;;;;;5134051;27;20481;-77
2023/07/01 04:49:24;;;;;;;8.48;3.47;;;;;;;;;;5134015;27;20297;-76
2023/07/01 04:51:51;;;;;;;8.32;3.38;;;;;;;;;;5134614;27;20216;-77
2023/07/01 04:54:18;;;;;;;9.32;3.20;;;;;;;;;;5134480;27;20232;-76
2023/07/01 04:56:47;;;;;;;8.90;3.25;;;;;;;;;;5134059;27;20263;-77
2023/07/01 04:59:14;;;;;;;5.95;3.17;;;;;;;;;;5134483;27;20259;-76
2023/07/01 05:01:41;;;;;;;7.68;2.70;;;;;;;;;;5134427;27;20213;-76
2023/07/01 05:04:08;;;;;;;6.85;2.63;;;;;;;;;;5134302;27;20225;-77
2023/07/01 05:06:36;;;;;;;6.55;2.40;;;;;;;;;;5133886;27;20201;-77
2023/07/01 05:09:04;;;;;;;5.68;1.90;;;;;;;;;;5133895;27;20201;-76
2023/07/01 05:11:31;;;;;;;4.32;1.90;;;;;;;;;;5134080;27;20193;-75
2023/07/01 05:14:00;;;;;;;8.07;2.80;;;;;;;;;;5134007;27;20224;-77
2023/07/01 05:16:27;;;;;;;2.58;2.30;;;;;;;;;;5133282;27;20781;-76
2023/07/01 05:18:56;;;;;;;7.00;2.60;;;;;;;;;;5133667;27;20292;-77
2023/07/01 05:21:23;;;;;;;4.97;2.75;;;;;;;;;;5133742;27;20234;-77
2023/07/01 05:23:50;;;;;;;5.13;2.28;;;;;;;;;;5133746;27;20284;-78
2023/07/01 05:26:18;;;;;;;5.18;2.45;;;;;;;;;;5133448;27;20304;-76
2023/07/01 05:28:45;;;;;;;4.40;2.38;;;;;;;;;;5133516;27;20225;-77
2023/07/01 05:31:14;;;;;;;6.03;2.30;;;;;;;;;;5132837;27;20711;-75
2023/07/01 05:33:41;;;;;;;3.13;1.38;;;;;;;;;;5133687;27;20277;-76
2023/07/01 05:36:08;;;;;;;2.95;0.90;;;;;;;;;;5133536;27;20398;-76
2023/07/01 05:38:35;;;;;;;2.00;0.80;;;;;;;;;;5133506;27;20221;-76
2023/07/01 05:41:02;;;;;;;3.40;0.80;;;;;;;;;;5133143;27;20291;-76
2023/07/01 05:43:30;;;;;;;2.40;0.55;;;;;;;;;;5133262;27;20291;-76
2023/07/01 05:45:57;;;;;;;1.30;0.60;;;;;;;;;;5133243;27;20295;-76
2023/07/01 05:48:25;;;;;;;1.50;0.60;;;;;;;;;;5133733;27;20284;-76
2023/07/01 05:50:52;;;;;;;1.92;0.70;;;;;;;;;;5132592;27;20804;-77
2023/07/01 05:53:20;;;;;;;1.00;0.68;;;;;;;;;;5133250;27;20291;-77
2023/07/01 05:55:47;;;;;;;1.40;0.80;;;;;;;;;;5132765;27;20312;-76
2023/07/01 05:58:14;;;;;;;3.22;0.85;;;;;;;;;;5133006;27;20198;-77
2023/07/01 06:00:41;;;;;;;2.60;0.88;;;;;;;;;;5132695;27;20288;-77
2023/07/01 06:03:11;;;;;;;4.30;0.80;;;;;;;;;;5132822;27;20288;-76
2023/07/01 06:05:39;;;;;;;2.80;1.10;;;;;;;;;;5132516;27;20661;-78
2023/07/01 06:08:07;;;;;;;3.20;1.13;;;;;;;;;;5132869;27;20584;-76
2023/07/01 06:10:34;;;;;;;2.00;1.08;;;;;;;;;;5133154;27;20288;-76
2023/07/01 06:13:01;;;;;;;2.10;1.10;;;;;;;;;;5132565;27;20287;-76
2023/07/01 06:15:28;;;;;;;1.90;1.08;;;;;;;;;;5132027;27;20653;-76
2023/07/01 06:17:55;;;;;;;3.20;1.13;;;;;;;;;;5132492;27;20679;-77
2023/07/01 06:20:23;;;;;;;2.45;1.10;;;;;;;;;;5132562;27;20217;-77
2023/07/01 06:22:51;;;;;;;3.10;1.02;;;;;;;;;;5132721;27;20280;-77
2023/07/01 06:25:19;;;;;;;3.08;0.90;;;;;;;;;;5133106;27;20239;-76
2023/07/01 06:27:46;;;;;;;2.63;1.20;;;;;;;;;;5132606;27;20231;-77
2023/07/01 06:30:13;;;;;;;2.33;1.10;;;;;;;;;;5132092;27;20225;-75
2023/07/01 06:32:41;;;;;;;3.85;1.30;;;;;;;;;;5132908;27;20197;-77
2023/07/01 06:35:08;;;;;;;2.67;1.10;;;;;;;;;;5132451;27;20231;-76
2023/07/01 06:37:35;;;;;;;4.15;1.42;;;;;;;;;;5132359;27;20673;-77
2023/07/01 06:40:04;;;;;;;2.67;1.27;;;;;;;;;;5132237;27;20582;-76
2023/07/01 06:42:31;;;;;;;4.10;1.13;;;;;;;;;;5132211;27;20193;-76
2023/07/01 06:44:59;;;;;;;3.15;1.42;;;;;;;;;;5131598;27;20201;-75
2023/07/01 06:47:26;;;;;;;3.40;1.58;;;;;;;;;;5132117;27;20229;-76
2023/07/01 06:49:53;;;;;;;4.68;1.70;;;;;;;;;;5132385;27;20312;-76
2023/07/01 06:52:20;;;;;;;4.53;1.70;;;;;;;;;;5132269;27;20284;-75
2023/07/01 06:54:47;;;;;;;3.83;1.80;;;;;;;;;;5132376;28;20284;-76
2023/07/01 06:57:16;;;;;;;4.53;2.13;;;;;;;;;;5132123;28;20316;-76
2023/07/01 06:59:43;;;;;;;4.40;1.90;;;;;;;;;;5132240;28;20279;-76
2023/07/01 07:02:10;;;;;;;5.60;2.28;;;;;;;;;;5131813;28;20292;-76
2023/07/01 07:04:37;;;;;;;5.82;2.10;;;;;;;;;;5132263;27;20288;-75
2023/07/01 07:07:05;;;;;;;5.70;2.13;;;;;;;;;;5134158;27;20200;-76
2023/07/01 07:09:32;;;;;;;6.60;2.45;;;;;;;;;;5136304;27;20300;-76
2023/07/01 07:11:59;;;;;;;4.32;2.47;;;;;;;;;;5136128;27;20257;-77
2023/07/01 07:14:28;;;;;;;6.43;2.72;;;;;;;;;;5136494;27;20658;-74
2023/07/01 07:16:55;;;;;;;5.72;3.25;;;;;;;;;;5136262;27;20319;-76
2023/07/01 07:19:22;;;;;;;7.60;4.43;;;;;;;;;;5136190;27;20288;-76
2023/07/01 07:21:49;;;;;;;6.90;3.80;;;;;;;;;;5136177;27;20280;-76
2023/07/01 07:24:16;;;;;;;6.07;4.07;;;;;;;;;;5136299;27;20217;-76
2023/07/01 07:26:43;;;;;;;7.47;4.35;;;;;;;;;;5135676;27;20288;-76
2023/07/01 07:29:11;;;;;;;8.20;4.13;;;;;;;;;;5135774;27;20292;-76
2023/07/01 07:31:40;;;;;;;6.78;3.80;;;;;;;;;;5135869;27;20287;-76
2023/07/01 07:34:07;;;;;;;7.47;4.22;;;;;;;;;;5135565;27;20284;-77
2023/07/01 07:36:34;;;;;;;10.70;4.80;;;;;;;;;;5136453;27;20311;-77
2023/07/01 07:39:01;;;;;;;9.25;4.80;;;;;;;;;;5135844;27;20292;-76
2023/07/01 07:41:28;;;;;;;7.85;5.07;;;;;;;;;;5135092;27;20289;-77
2023/07/01 07:43:55;;;;;;;9.65;5.47;;;;;;;;;;5136163;27;20193;-76
2023/07/01 07:46:23;;;;;;;10.55;6.30;;;;;;;;;;5135524;27;20224;-77
2023/07/01 07:48:51;;;;;;;9.43;5.88;;;;;;;;;;5135969;27;20284;-77
2023/07/01 07:51:18;;;;;;;11.15;7.03;;;;;;;;;;5135252;27;20328;-76
2023/07/01 07:53:45;;;;;;;11.10;6.85;;;;;;;;;;5135565;27;20215;-76
2023/07/01 07:56:13;;;;;;;10.38;6.68;;;;;;;;;;5135034;27;20216;-77
2023/07/01 07:58:40;;;;;;;10.45;7.25;;;;;;;;;;5135697;27;20284;-77
2023/07/01 08:01:07;;;;;;;11.20;6.15;;;;;;;;;;5135674;27;20193;-76
2023/07/01 08:03:35;;;;;;;12.45;6.90;;;;;;;;;;5135162;27;20639;-76
2023/07/01 08:06:04;;;;;;;8.90;6.30;;;;;;;;;;5135179;27;20621;-77
2023/07/01 08:08:31;;;;;;;9.80;6.07;;;;;;;;;;5134971;27;20223;-77
2023/07/01 08:10:58;;;;;;;13.45;6.85;;;;;;;;;;5134813;27;20288;-78
2023/07/01 08:13:25;;;;;;;16.63;6.95;;;;;;;;;;5135221;27;20224;-76
2023/07/01 08:15:52;;;;;;;10.25;6.72;;;;;;;;;;5135133;27;20235;-77
2023/07/01 08:18:20;;;;;;;11.60;7.13;;;;;;;;;;5133271;27;20594;-77
2023/07/01 08:20:47;;;;;;;12.85;7.85;;;;;;;;;;5133981;27;20659;-77
2023/07/01 08:23:16;;;;;;;12.43;7.57;;;;;;;;;;5134400;27;20657;-77
2023/07/01 08:25:43;;;;;;;11.70;7.80;;;;;;;;;;5134011;27;20200;-75
2023/07/01 08:28:10;;;;;;;13.45;7.60;;;;;;;;;;5134192;27;20280;-77
2023/07/01 08:30:37;;;;;;;11.32;8.50;;;;;;;;;;5134818;27;20292;-77
2023/07/01 08:33:05;;;;;;;15.40;8.70;;;;;;;;;;5134385;27;20229;-76
2023/07/01 08:35:32;;;;;;;14.68;8.98;;;;;;;;;;5134508;27;20301;-78
2023/07/01 08:37:59;;;;;;;13.23;8.90;;;;;;;;;;5134778;27;20315;-77
2023/07/01 08:40:27;;;;;;;15.77;9.75;;;;;;;;;;5134422;27;20229;-77
2023/07/01 08:42:58;;;;;;;19.38;10.73;;;;;;;;;;5134812;27;20292;-77
2023/07/01 08:45:26;;;;;;;14.90;9.85;;;;;;;;;;5134550;27;20288;-76
2023/07/01 08:47:54;;;;;;;17.77;11.30;;;;;;;;;;5134600;27;20292;-77
2023/07/01 08:50:22;;;;;;;17.98;11.20;;;;;;;;;;5126754;27;20240;-78
2023/07/01 08:52:53;;;;;;;21.88;11.75;;;;;;;;;;5118316;27;20202;-79
2023/07/01 08:55:20;;;;;;;15.63;11.05;;;;;;;;;;5109902;28;20312;-77
2023/07/01 08:57:49;;;;;;;17.85;11.70;;;;;;;;;;5110381;28;20269;-78
2023/07/01 09:00:16;;;;;;;16.00;12.00;;;;;;;;;;5111008;28;20288;-78
2023/07/01 09:02:44;;;;;;;17.20;11.75;;;;;;;;;;4773332;27;10000473;-78
2023/07/01 09:05:11;;;;;;;18.35;12.13;;;;;;;;;;5130748;27;20891;-77
2023/07/01 09:07:38;;;;;;;18.92;11.70;;;;;;;;;;5130112;27;20663;-77
2023/07/01 09:10:07;;;;;;;19.35;12.48;;;;;;;;;;5130819;27;20645;-78
2023/07/01 09:12:34;;;;;;;20.20;12.77;;;;;;;;;;5130511;27;20238;-77
2023/07/01 09:15:03;;;;;;;20.88;12.52;;;;;;;;;;5129828;27;20236;-79
2023/07/01 09:17:31;;;;;;;19.13;12.50;;;;;;;;;;5133511;27;20229;-78
2023/07/01 09:20:02;;;;;;;20.98;12.85;;;;;;;;;;5146764;27;20440;-78
2023/07/01 09:22:30;;;;;;;18.13;12.50;;;;;;;;;;5136350;27;20636;-79
2023/07/01 09:24:57;;;;;;;20.00;13.38;;;;;;;;;;5140120;27;20205;-78
2023/07/01 09:27:24;;;;;;;19.02;13.65;;;;;;;;;;5131879;27;20906;-78
2023/07/01 09:29:52;;;;;;;20.48;13.50;;;;;;;;;;5134716;27;20307;-77
2023/07/01 09:32:29;;;;;;;22.10;13.65;;;;;;;;;;5131955;27;20291;-77
2023/07/01 09:34:57;;;;;;;21.98;14.35;;;;;;;;;;5131499;27;20238;-78
2023/07/01 09:37:24;;;;;;;20.52;13.85;;;;;;;;;;5141339;27;20223;-78
2023/07/01 09:39:52;;;;;;;22.80;14.43;;;;;;;;;;5134078;27;20296;-77
2023/07/01 09:42:19;;;;;;;19.00;13.95;;;;;;;;;;5146355;27;20196;-76
2023/07/01 09:45:01;;;;;;;21.33;14.20;;;;;;;;;;5136973;27;20200;-76
2023/07/01 09:47:30;;;;;;;20.83;13.90;;;;;;;;;;5135950;27;20205;-76
2023/07/01 09:49:57;;;;;;;22.73;14.43;;;;;;;;;;5146065;27;20224;-76
2023/07/01 09:52:31;;;;;;;25.55;14.82;;;;;;;;;;5113837;27;20197;-78
2023/07/01 09:54:59;;;;;;;21.25;14.20;;;;;;;;;;5136476;27;20224;-77
2023/07/01 09:57:27;;;;;;;22.77;15.00;;;;;;;;;;5143392;27;20227;-76
2023/07/01 09:59:54;;;;;;;25.15;15.15;;;;;;;;;;5146287;27;20220;-77
2023/07/01 10:02:22;;;;;;;23.55;15.15;;;;;;;;;;5134276;27;20201;-78
2023/07/01 10:04:52;;;;;;;22.33;14.55;;;;;;;;;;5131843;27;20201;-77
2023/07/01 10:07:19;;;;;;;24.38;15.30;;;;;;;;;;5128893;27;20536;-78
2023/07/01 10:09:47;;;;;;;25.83;15.35;;;;;;;;;;5130263;27;20220;-77
2023/07/01 10:12:15;;;;;;;23.60;15.32;;;;;;;;;;5129790;27;20201;-77
2023/07/01 10:14:43;;;;;;;23.67;14.05;;;;;;;;;;5129132;27;20284;-77
2023/07/01 10:17:10;;;;;;;19.17;12.48;;;;;;;;;;5129473;27;20323;-80
2023/07/01 10:19:39;;;;;;;17.77;12.55;;;;;;;;;;5129103;27;20262;-80
2023/07/01 10:22:29;;;;;;;16.55;11.07;;;;;;;;;;5128884;27;20727;-80
2023/07/01 10:24:57;;;;;;;14.88;11.00;;;;;;;;;;5129365;27;20201;-80
2023/07/01 10:27:43;;;;;;;13.73;10.57;;;;;;;;;;5120389;27;20226;-78
2023/07/01 10:30:11;;;;;;;14.63;9.63;;;;;;;;;;5132672;27;20730;-78
2023/07/01 10:32:38;;;;;;;15.80;9.63;;;;;;;;;;5132408;27;20574;-78
2023/07/01 10:35:08;;;;;;;15.23;9.90;;;;;;;;;;5138614;27;20232;-79
2023/07/01 10:37:37;;;;;;;13.23;8.93;;;;;;;;;;5133204;27;20642;-78
2023/07/01 10:40:25;;;;;;;14.23;9.70;;;;;;;;;;5130885;27;20216;-79
2023/07/01 10:42:52;;;;;;;13.48;9.10;;;;;;;;;;5128954;27;20228;-78
2023/07/01 10:45:38;;;;;;;16.20;9.60;;;;;;;;;;5132622;27;20265;-79
2023/07/01 10:48:16;;;;;;;15.90;9.82;;;;;;;;;;5131326;27;20219;-79
2023/07/01 10:51:02;;;;;;;16.60;9.40;;;;;;;;;;5127334;27;20301;-79
2023/07/01 10:53:32;;;;;;;14.77;9.68;;;;;;;;;;5130580;27;20192;-79
2023/07/01 10:56:13;;;;;;;15.40;10.30;;;;;;;;;;5130290;27;20288;-79
2023/07/01 10:58:42;;;;;;;14.10;9.98;;;;;;;;;;5129948;27;20316;-79
2023/07/01 11:01:09;;;;;;;16.25;10.48;;;;;;;;;;5126291;27;20223;-79
2023/07/01 11:03:55;;;;;;;17.73;10.70;;;;;;;;;;5132474;27;20280;-79
2023/07/01 11:06:22;;;;;;;16.85;11.70;;;;;;;;;;5130495;27;20204;-78
2023/07/01 11:08:52;;;;;;;18.77;11.50;;;;;;;;;;5131499;27;20292;-79
2023/07/01 11:11:20;;;;;;;16.77;11.05;;;;;;;;;;5130510;27;20705;-79
2023/07/01 11:13:55;;;;;;;19.65;12.48;;;;;;;;;;5133742;27;20203;-79
2023/07/01 11:16:23;;;;;;;20.88;12.18;;;;;;;;;;5130829;27;20228;-79
2023/07/01 11:18:51;;;;;;;20.33;12.80;;;;;;;;;;5128349;27;20229;-79
2023/07/01 11:21:20;;;;;;;18.10;12.40;;;;;;;;;;5130090;28;20225;-79
2023/07/01 11:23:54;;;;;;;19.15;13.13;;;;;;;;;;5130662;28;20197;-78
2023/07/01 11:26:22;;;;;;;18.80;12.07;;;;;;;;;;5134499;27;20227;-79
2023/07/01 11:28:49;;;;;;;18.55;13.30;;;;;;;;;;5127431;27;20195;-78
2023/07/01 11:31:17;;;;;;;20.20;13.00;;;;;;;;;;5131772;27;20280;-79
2023/07/01 11:33:45;;;;;;;18.42;13.45;;;;;;;;;;5131497;28;20287;-78
2023/07/01 11:36:14;;;;;;;19.67;14.02;;;;;;;;;;5148743;27;20204;-78
2023/07/01 11:38:41;;;;;;;21.45;14.45;;;;;;;;;;5134918;27;20266;-78
2023/07/01 11:41:09;;;;;;;19.35;14.35;;;;;;;;;;5146833;27;20193;-78
2023/07/01 11:43:40;;;;;;;20.63;14.40;;;;;;;;;;5127552;28;20295;-78
2023/07/01 11:46:07;;;;;;;23.85;15.25;;;;;;;;;;5129622;27;20741;-79
2023/07/01 11:48:34;;;;;;;20.98;15.65;;;;;;;;;;5137851;27;20228;-79
2023/07/01 11:51:02;;;;;;;20.80;15.48;;;;;;;;;;5151050;27;20228;-78
2023/07/01 11:53:29;;;;;;;21.23;15.25;;;;;;;;;;5131693;27;20225;-79
2023/07/01 11:55:58;;;;;;;22.65;14.82;;;;;;;;;;5135416;27;20193;-79
2023/07/01 11:58:28;;;;;;;21.05;15.73;;;;;;;;;;5136083;27;20217;-80
2023/07/01 12:00:55;;;;;;;22.08;15.88;;;;;;;;;;5135070;27;20298;-80
2023/07/01 12:03:22;;;;;;;24.63;16.45;;;;;;;;;;5137174;27;20196;-80
2023/07/01 12:05:49;;;;;;;22.30;16.05;;;;;;;;;;5138885;27;20225;-79
2023/07/01 12:08:16;;;;;;;23.90;16.20;;;;;;;;;;5134218;27;20301;-78
2023/07/01 12:10:44;;;;;;;27.00;15.57;;;;;;;;;;5141055;27;20184;-78
2023/07/01 12:13:26;;;;;;;25.70;17.55;;;;;;;;;;5156030;27;20239;-78
2023/07/01 12:15:56;;;;;;;21.88;16.98;;;;;;;;;;5147997;27;20197;-77
2023/07/01 12:18:26;;;;;;;24.25;17.63;;;;;;;;;;5155726;27;20242;-78
2023/07/01 12:20:54;;;;;;;27.48;16.48;;;;;;;;;;5156105;27;20295;-78
2023/07/01 12:23:21;;;;;;;25.13;16.85;;;;;;;;;;5141490;27;20204;-78
2023/07/01 12:25:49;;;;;;;22.48;16.58;;;;;;;;;;5132524;27;20259;-77
2023/07/01 12:28:16;;;;;;;23.30;17.23;;;;;;;;;;5133197;27;20197;-78
2023/07/01 12:30:44;;;;;;;25.92;16.52;;;;;;;;;;5133674;27;20228;-77
2023/07/01 12:33:12;;;;;;;25.20;17.55;;;;;;;;;;5139272;27;20562;-79
2023/07/01 12:35:41;;;;;;;25.60;17.63;;;;;;;;;;5155595;27;20192;-78
2023/07/01 12:38:12;;;;;;;27.15;19.55;;;;;;;;;;5154745;27;20724;-79
2023/07/01 12:40:39;;;;;;;28.90;19.52;;;;;;;;;;5138238;27;20252;-78
2023/07/01 12:43:07;;;;;;;28.90;18.85;;;;;;;;;;5147708;27;20283;-79
2023/07/01 12:45:34;;;;;;;28.52;18.40;;;;;;;;;;5140317;27;20204;-78
2023/07/01 12:48:01;;;;;;;29.65;19.25;;;;;;;;;;5134016;27;20693;-78
2023/07/01 12:50:30;;;;;;;28.40;19.25;;;;;;;;;;5133656;27;20324;-80
2023/07/01 12:52:57;;;;;;;26.63;18.38;;;;;;;;;;5138172;27;20228;-80
2023/07/01 12:55:25;;;;;;;31.23;20.92;;;;;;;;;;5152135;27;20723;-77
2023/07/01 12:57:52;;;;;;;30.02;19.75;;;;;;;;;;5152077;27;20292;-78
2023/07/01 13:00:19;;;;;;;28.60;19.23;;;;;;;;;;5154269;27;20224;-77
2023/07/01 13:02:47;;;;;;;30.80;19.88;;;;;;;;;;5154740;27;20203;-77
2023/07/01 13:05:16;;;;;;;30.17;19.63;;;;;;;;;;5140480;27;20216;-77
2023/07/01 13:07:47;;;;;;;30.60;21.35;;;;;;;;;;5146980;27;20249;-76
2023/07/01 13:10:14;;;;;;;29.88;20.95;;;;;;;;;;5138077;27;20225;-77
2023/07/01 13:12:42;;;;;;;33.45;21.15;;;;;;;;;;5150645;27;20283;-77
2023/07/01 13:15:19;;;;;;;33.20;22.00;;;;;;;;;;5146026;27;20193;-77
2023/07/01 13:17:48;;;;;;;34.67;21.02;;;;;;;;;;5145801;27;20668;-78
2023/07/01 13:20:15;;;;;;;30.60;21.23;;;;;;;;;;5137848;27;20217;-77
2023/07/01 13:22:43;;;;;;;35.45;22.08;;;;;;;;;;5139742;27;20284;-76
2023/07/01 13:25:18;;;;;;;35.90;22.67;;;;;;;;;;5133930;27;20250;-79
2023/07/01 13:27:45;;;;;;;37.85;22.42;;;;;;;;;;5135787;27;20193;-77
2023/07/01 13:30:24;;;;;;;32.58;21.70;;;;;;;;;;5131798;27;20220;-78
2023/07/01 13:32:51;;;;;;;33.72;21.60;;;;;;;;;;5129077;27;20632;-77
2023/07/01 13:35:18;;;;;;;33.40;21.27;;;;;;;;;;5131566;27;20197;-77
2023/07/01 13:37:46;;;;;;;31.27;21.23;;;;;;;;;;5143207;27;20216;-77
2023/07/01 13:40:16;;;;;;;35.65;22.98;;;;;;;;;;5153837;27;20204;-77
2023/07/01 13:42:44;;;;;;;37.42;23.08;;;;;;;;;;5133470;27;20193;-78
2023/07/01 13:45:21;;;;;;;33.30;22.08;;;;;;;;;;5133358;27;20216;-77
2023/07/01 13:47:49;;;;;;;34.05;22.50;;;;;;;;;;5120738;27;20277;-78
2023/07/01 13:50:19;;;;;;;31.70;22.67;;;;;;;;;;5132025;27;20232;-77
2023/07/01 13:52:47;;;;;;;38.63;23.45;;;;;;;;;;5133183;27;20193;-77
2023/07/01 13:55:18;;;;;;;34.85;23.58;;;;;;;;;;5129617;27;20292;-78
2023/07/01 13:57:46;;;;;;;35.72;23.85;;;;;;;;;;5129559;27;20688;-77
2023/07/01 14:00:24;;;;;;;33.50;23.60;;;;;;;;;;5132161;27;20232;-76
2023/07/01 14:02:51;;;;;;;34.28;21.60;;;;;;;;;;5132449;27;20193;-77
2023/07/01 14:05:23;;;;;;;32.72;22.65;;;;;;;;;;5130349;27;20269;-77
2023/07/01 14:07:57;;;;;;;31.27;22.17;;;;;;;;;;5153714;27;20211;-77
2023/07/01 14:10:29;;;;;;;36.03;24.17;;;;;;;;;;5154336;27;20242;-77
2023/07/01 14:12:56;;;;;;;33.85;25.08;;;;;;;;;;5140112;27;20578;-78
2023/07/01 14:15:27;;;;;;;37.75;24.88;;;;;;;;;;5138551;27;20643;-77
2023/07/01 14:17:54;;;;;;;40.92;24.42;;;;;;;;;;5134653;27;20239;-78
2023/07/01 14:20:23;;;;;;;40.45;24.33;;;;;;;;;;5134791;27;20252;-77
2023/07/01 14:22:57;;;;;;;38.90;24.75;;;;;;;;;;5139711;27;20193;-78
2023/07/01 14:25:28;;;;;;;37.40;24.23;;;;;;;;;;5136455;27;20203;-77
2023/07/01 14:27:57;;;;;;;37.35;24.38;;;;;;;;;;5130847;27;20193;-78
2023/07/01 14:30:41;;;;;;;37.55;25.88;;;;;;;;;;5138590;27;20221;-75
2023/07/01 14:33:08;;;;;;;35.78;25.60;;;;;;;;;;5131432;27;20196;-75
2023/07/01 14:35:35;;;;;;;37.58;25.48;;;;;;;;;;5131349;27;20228;-75